Time;durP1;ratioP1;P1;durP2;ratioP2;P2;SDS_P1;SDS_P2;PMS_P1;PMS_P2;Temp;Humidity;BMP_temperature;BMP_pressure;BME280_temperature;BME280_humidity;BME280_pressure;Samples;Min_cycle;Max_cycle;Signal;HPM_P1;HPM_P2
2020/12/09 00:01:50;;;;;;;108.10;48.00;;;3.40;99.90;;;;;;5050657;28;20583;-45
2020/12/09 00:04:17;;;;;;;110.05;49.38;;;3.40;99.90;;;;;;5050344;28;20063;-45
2020/12/09 00:06:43;;;;;;;107.28;51.60;;;3.30;99.90;;;;;;5049735;28;20507;-45
2020/12/09 00:09:14;;;;;;;112.53;51.08;;;3.40;99.90;;;;;;5050476;28;20060;-45
2020/12/09 00:11:41;;;;;;;111.25;49.42;;;3.40;99.90;;;;;;5050694;28;20025;-44
2020/12/09 00:14:09;;;;;;;116.30;49.22;;;3.30;99.90;;;;;;5050489;28;20031;-44
2020/12/09 00:16:34;;;;;;;107.57;48.35;;;3.30;99.90;;;;;;5050064;28;20025;-44
2020/12/09 00:19:03;;;;;;;113.20;49.85;;;3.30;99.90;;;;;;5049321;28;20082;-46
2020/12/09 00:21:30;;;;;;;110.57;49.80;;;3.30;99.90;;;;;;5050116;28;20048;-46
2020/12/09 00:23:55;;;;;;;114.32;50.97;;;3.30;99.90;;;;;;5050571;28;20021;-45
2020/12/09 00:26:22;;;;;;;108.63;50.42;;;3.30;99.90;;;;;;5046056;28;20023;-44
2020/12/09 00:28:48;;;;;;;108.15;48.63;;;3.30;99.90;;;;;;5048798;28;20420;-44
2020/12/09 00:31:19;;;;;;;113.18;50.67;;;3.40;99.90;;;;;;5050374;28;20017;-45
2020/12/09 00:33:49;;;;;;;117.03;51.30;;;3.30;99.90;;;;;;5036217;28;20021;-45
2020/12/09 00:36:15;;;;;;;104.57;48.77;;;3.40;99.90;;;;;;5049921;28;20037;-47
2020/12/09 00:38:42;;;;;;;104.82;48.47;;;3.50;99.90;;;;;;5050291;28;20271;-44
2020/12/09 00:41:13;;;;;;;116.75;51.00;;;3.50;99.90;;;;;;5050345;28;20033;-47
2020/12/09 00:43:38;;;;;;;109.32;48.88;;;3.50;99.90;;;;;;5050155;28;20025;-45
2020/12/09 00:46:04;;;;;;;107.15;48.90;;;3.50;99.90;;;;;;5048211;28;20067;-45
2020/12/09 00:48:29;;;;;;;117.25;50.42;;;3.50;99.90;;;;;;5050196;28;20021;-45
2020/12/09 00:50:55;;;;;;;103.85;49.83;;;3.40;99.90;;;;;;5049911;28;20013;-46
2020/12/09 00:53:20;;;;;;;103.05;48.97;;;3.40;99.90;;;;;;5050201;28;20635;-45
2020/12/09 00:55:46;;;;;;;99.10;47.42;;;3.40;99.90;;;;;;5049330;28;20418;-46
2020/12/09 00:58:11;;;;;;;110.13;51.63;;;3.40;99.90;;;;;;5049559;28;20040;-45
2020/12/09 01:00:37;;;;;;;111.45;50.33;;;3.50;99.90;;;;;;5050064;28;20025;-44
2020/12/09 01:03:02;;;;;;;110.07;48.65;;;3.50;99.90;;;;;;5049659;28;20573;-44
2020/12/09 01:05:28;;;;;;;100.55;48.38;;;3.40;99.90;;;;;;5047625;28;20112;-45
2020/12/09 01:07:53;;;;;;;102.05;47.47;;;3.50;99.90;;;;;;5048690;28;20025;-45
2020/12/09 01:10:19;;;;;;;99.28;48.65;;;3.50;99.90;;;;;;5049944;28;20009;-45
2020/12/09 01:12:44;;;;;;;98.90;46.35;;;3.50;99.90;;;;;;5049572;28;20025;-45
2020/12/09 01:15:10;;;;;;;109.07;48.70;;;3.40;99.90;;;;;;5049009;28;20033;-45
2020/12/09 01:17:36;;;;;;;106.25;50.10;;;3.40;99.90;;;;;;5048298;28;20057;-45
2020/12/09 01:20:03;;;;;;;106.07;51.45;;;3.40;99.90;;;;;;5049609;28;20024;-45
2020/12/09 01:22:29;;;;;;;109.97;49.78;;;3.40;99.90;;;;;;5049773;28;20052;-45
2020/12/09 01:24:54;;;;;;;109.63;51.90;;;3.40;99.90;;;;;;5048806;28;20060;-45
2020/12/09 01:27:24;;;;;;;111.00;51.72;;;3.40;99.90;;;;;;5048088;28;20024;-46
2020/12/09 01:29:50;;;;;;;111.72;51.15;;;3.50;99.90;;;;;;5049115;28;20070;-45
2020/12/09 01:32:15;;;;;;;112.28;51.40;;;3.40;99.90;;;;;;5046466;28;20017;-46
2020/12/09 01:34:41;;;;;;;105.65;48.65;;;3.40;99.90;;;;;;5039123;28;20017;-45
2020/12/09 01:37:06;;;;;;;103.82;49.30;;;3.40;99.90;;;;;;5053531;28;20068;-46
2020/12/09 01:39:32;;;;;;;110.32;52.80;;;3.50;99.90;;;;;;5053919;28;20025;-48
2020/12/09 01:41:57;;;;;;;112.40;51.70;;;3.40;99.90;;;;;;5053818;28;20438;-45
2020/12/09 01:44:24;;;;;;;105.43;50.15;;;3.50;99.90;;;;;;5052734;28;20025;-44
2020/12/09 01:46:51;;;;;;;117.47;54.13;;;3.40;99.90;;;;;;5053466;28;20612;-46
2020/12/09 01:49:17;;;;;;;108.53;51.63;;;3.50;99.90;;;;;;5053382;28;20087;-45
2020/12/09 01:51:42;;;;;;;108.88;50.58;;;3.50;99.90;;;;;;5053616;28;20029;-45
2020/12/09 01:54:08;;;;;;;110.13;52.33;;;3.50;99.90;;;;;;5053330;28;20528;-45
2020/12/09 01:56:33;;;;;;;112.05;51.30;;;3.50;99.90;;;;;;5052857;28;20378;-44
2020/12/09 01:58:59;;;;;;;107.85;49.17;;;3.50;99.90;;;;;;5052983;28;20036;-45
2020/12/09 02:01:26;;;;;;;113.82;50.78;;;3.50;99.90;;;;;;5053005;28;20655;-44
2020/12/09 02:03:52;;;;;;;110.05;52.80;;;3.40;99.90;;;;;;5053375;28;20107;-44
2020/12/09 02:06:18;;;;;;;108.20;52.60;;;3.40;99.90;;;;;;5052488;28;20100;-44
2020/12/09 02:08:45;;;;;;;113.47;53.28;;;3.40;99.90;;;;;;5051843;28;20022;-46
2020/12/09 02:11:11;;;;;;;109.38;51.42;;;3.50;99.90;;;;;;5052905;28;20493;-44
2020/12/09 02:13:42;;;;;;;103.90;51.05;;;3.50;99.90;;;;;;5053087;28;20025;-45
2020/12/09 02:16:07;;;;;;;116.88;53.58;;;3.50;99.90;;;;;;5052507;28;20021;-44
2020/12/09 02:18:33;;;;;;;108.53;52.08;;;3.50;99.90;;;;;;5052921;28;20036;-44
2020/12/09 02:20:58;;;;;;;111.20;52.03;;;3.50;99.90;;;;;;5052983;28;20151;-43
2020/12/09 02:23:24;;;;;;;110.88;50.72;;;3.50;99.90;;;;;;5052733;28;20036;-44
2020/12/09 02:25:49;;;;;;;108.07;53.10;;;3.50;99.90;;;;;;5052337;28;20094;-45
2020/12/09 02:28:15;;;;;;;109.20;53.25;;;3.50;99.90;;;;;;5051257;28;20105;-45
2020/12/09 02:30:40;;;;;;;120.55;54.90;;;3.50;99.90;;;;;;5052807;28;20035;-45
2020/12/09 02:33:06;;;;;;;113.18;52.53;;;3.50;99.90;;;;;;5042279;28;20101;-45
2020/12/09 02:35:32;;;;;;;107.80;51.58;;;3.50;99.90;;;;;;5047044;28;20120;-44
2020/12/09 02:37:58;;;;;;;106.95;52.33;;;3.50;99.90;;;;;;5052752;28;20467;-47
2020/12/09 02:40:24;;;;;;;109.00;51.00;;;3.50;99.90;;;;;;5051559;28;20032;-44
2020/12/09 02:42:49;;;;;;;116.13;53.45;;;3.50;99.90;;;;;;5052413;28;20025;-44
2020/12/09 02:45:15;;;;;;;119.10;53.33;;;3.50;99.90;;;;;;5051482;28;20060;-45
2020/12/09 02:47:41;;;;;;;112.80;54.50;;;3.50;99.90;;;;;;5052479;28;20025;-46
2020/12/09 02:50:08;;;;;;;110.47;54.83;;;3.50;99.90;;;;;;5052437;28;20028;-44
2020/12/09 02:52:33;;;;;;;118.82;54.92;;;3.50;99.90;;;;;;5052310;28;20032;-45
2020/12/09 02:54:59;;;;;;;112.55;52.17;;;3.50;99.90;;;;;;5051717;28;20025;-45
2020/12/09 02:57:24;;;;;;;112.65;52.10;;;3.50;99.90;;;;;;5052031;28;20037;-45
2020/12/09 02:59:50;;;;;;;108.20;50.80;;;3.50;99.90;;;;;;5052250;28;20076;-45
2020/12/09 03:02:15;;;;;;;118.57;52.53;;;3.50;99.90;;;;;;5052323;28;20032;-46
2020/12/09 03:04:41;;;;;;;110.90;54.20;;;3.50;99.90;;;;;;5051459;28;20021;-46
2020/12/09 03:07:06;;;;;;;108.93;52.13;;;3.60;99.90;;;;;;5052209;28;20027;-45
2020/12/09 03:09:32;;;;;;;106.15;53.22;;;3.50;99.90;;;;;;5052068;28;20025;-48
2020/12/09 03:11:57;;;;;;;107.18;52.63;;;3.50;99.90;;;;;;5052122;28;20080;-45
2020/12/09 03:14:23;;;;;;;107.18;53.80;;;3.50;99.90;;;;;;5050525;28;20025;-45
2020/12/09 03:16:48;;;;;;;113.82;52.20;;;3.50;99.90;;;;;;5050144;28;20017;-45
2020/12/09 03:19:14;;;;;;;109.82;52.63;;;3.50;99.90;;;;;;5051797;28;20040;-44
2020/12/09 03:21:40;;;;;;;108.78;53.40;;;3.50;99.90;;;;;;5051748;28;20086;-44
2020/12/09 03:24:10;;;;;;;114.43;52.85;;;3.50;99.90;;;;;;5052058;28;20017;-47
2020/12/09 03:26:35;;;;;;;109.80;54.53;;;3.50;99.90;;;;;;5051000;28;20021;-44
2020/12/09 03:29:01;;;;;;;106.38;51.65;;;3.50;99.90;;;;;;5051334;28;20033;-44
2020/12/09 03:31:26;;;;;;;119.47;55.83;;;3.50;99.90;;;;;;5051598;28;20025;-45
2020/12/09 03:33:52;;;;;;;115.32;54.70;;;3.50;99.90;;;;;;5036110;28;20485;-48
2020/12/09 03:36:17;;;;;;;109.25;53.97;;;3.50;99.90;;;;;;5050859;28;20017;-47
2020/12/09 03:38:42;;;;;;;114.10;56.50;;;3.50;99.90;;;;;;5050193;28;20032;-45
2020/12/09 03:41:08;;;;;;;122.47;56.10;;;3.50;99.90;;;;;;5051182;28;20021;-45
2020/12/09 03:43:33;;;;;;;113.68;54.85;;;3.50;99.90;;;;;;5049660;28;20508;-46
2020/12/09 03:45:59;;;;;;;111.70;54.30;;;3.50;99.90;;;;;;5050647;28;20033;-46
2020/12/09 03:48:24;;;;;;;117.50;54.83;;;3.50;99.90;;;;;;5031022;28;20029;-47
2020/12/09 03:50:50;;;;;;;114.80;55.80;;;3.50;99.90;;;;;;5034993;28;20029;-47
2020/12/09 03:53:15;;;;;;;113.47;54.63;;;3.60;99.90;;;;;;5030704;28;20475;-45
2020/12/09 03:55:41;;;;;;;114.03;55.35;;;3.50;99.90;;;;;;5036208;28;20033;-47
2020/12/09 03:58:07;;;;;;;116.60;55.42;;;3.50;99.90;;;;;;5029664;28;20091;-46
2020/12/09 04:00:32;;;;;;;114.03;56.10;;;3.50;99.90;;;;;;5029598;28;20026;-46
2020/12/09 04:02:59;;;;;;;113.80;52.80;;;3.50;99.90;;;;;;5030383;28;20025;-45
2020/12/09 04:05:25;;;;;;;122.97;56.25;;;3.50;99.90;;;;;;5029992;28;20032;-44
2020/12/09 04:07:52;;;;;;;105.35;51.30;;;3.50;99.90;;;;;;5029321;28;20025;-46
2020/12/09 04:10:18;;;;;;;105.43;52.45;;;3.50;99.90;;;;;;5030610;28;20426;-45
2020/12/09 04:12:44;;;;;;;115.10;53.88;;;3.50;99.90;;;;;;5030219;28;20021;-45
2020/12/09 04:15:10;;;;;;;122.18;54.67;;;3.50;99.90;;;;;;5029756;28;20081;-46
2020/12/09 04:17:36;;;;;;;110.28;50.97;;;3.50;99.90;;;;;;5030245;28;20098;-44
2020/12/09 04:20:04;;;;;;;110.50;51.80;;;3.50;99.90;;;;;;5029965;28;20478;-45
2020/12/09 04:22:29;;;;;;;110.30;53.80;;;3.50;99.90;;;;;;5029033;28;20518;-44
2020/12/09 04:24:54;;;;;;;106.20;52.00;;;3.50;99.90;;;;;;5028076;28;20065;-46
2020/12/09 04:27:21;;;;;;;99.97;49.08;;;3.50;99.90;;;;;;5030284;28;20024;-46
2020/12/09 04:29:46;;;;;;;106.63;50.38;;;3.50;99.90;;;;;;5030386;28;20378;-46
2020/12/09 04:32:12;;;;;;;106.00;51.80;;;3.50;99.90;;;;;;5030455;28;20104;-45
2020/12/09 04:34:38;;;;;;;100.38;49.63;;;3.50;99.90;;;;;;5037551;28;20067;-46
2020/12/09 04:37:04;;;;;;;103.47;48.85;;;3.50;99.90;;;;;;5050500;28;20028;-46
2020/12/09 04:39:30;;;;;;;108.88;51.85;;;3.60;99.90;;;;;;5050770;28;20124;-45
2020/12/09 04:41:55;;;;;;;101.10;48.85;;;3.60;99.90;;;;;;5050417;28;20125;-45
2020/12/09 04:44:24;;;;;;;103.30;50.17;;;3.60;99.90;;;;;;5049770;28;20033;-44
2020/12/09 04:46:52;;;;;;;103.57;50.50;;;3.60;99.90;;;;;;5050254;28;20032;-47
2020/12/09 04:49:19;;;;;;;106.75;52.33;;;3.60;99.90;;;;;;5050042;28;20105;-44
2020/12/09 04:52:12;;;;;;;112.07;53.63;;;3.60;99.90;;;;;;5050303;28;20013;-45
2020/12/09 04:54:41;;;;;;;103.38;49.53;;;3.50;99.90;;;;;;5048914;28;20595;-45
2020/12/09 04:57:22;;;;;;;101.45;48.92;;;3.50;99.90;;;;;;5048998;28;20033;-49
2020/12/09 04:59:58;;;;;;;105.15;52.00;;;3.50;99.90;;;;;;5049122;28;20107;-45
2020/12/09 05:02:42;;;;;;;118.65;55.25;;;3.50;99.90;;;;;;5049844;28;20036;-46
2020/12/09 05:05:10;;;;;;;111.40;52.72;;;3.50;99.90;;;;;;5049394;28;20029;-44
2020/12/09 05:07:37;;;;;;;109.07;51.65;;;3.50;99.90;;;;;;5031490;28;20017;-46
2020/12/09 05:10:06;;;;;;;121.00;56.30;;;3.40;99.90;;;;;;5029763;28;20410;-45
2020/12/09 05:12:41;;;;;;;116.95;52.63;;;3.40;99.90;;;;;;5029867;28;20021;-45
2020/12/09 05:15:11;;;;;;;122.63;57.42;;;3.40;99.90;;;;;;5028791;28;20018;-45
2020/12/09 05:17:49;;;;;;;106.35;50.97;;;3.50;99.90;;;;;;5028643;28;20052;-45
2020/12/09 05:20:14;;;;;;;109.40;51.75;;;3.50;99.90;;;;;;5039032;28;20514;-45
2020/12/09 05:22:45;;;;;;;107.80;51.97;;;3.50;99.90;;;;;;5028550;28;20168;-45
2020/12/09 05:25:10;;;;;;;117.97;55.28;;;3.50;99.90;;;;;;5028907;28;20112;-45
2020/12/09 05:27:36;;;;;;;116.68;55.58;;;3.50;99.90;;;;;;5029582;28;20121;-45
2020/12/09 05:30:02;;;;;;;119.10;54.33;;;3.50;99.90;;;;;;5029322;28;20448;-44
2020/12/09 05:32:29;;;;;;;118.63;54.17;;;3.50;99.90;;;;;;5029462;28;20026;-45
2020/12/09 05:34:54;;;;;;;114.28;55.25;;;3.50;99.90;;;;;;5030255;28;20383;-46
2020/12/09 05:37:21;;;;;;;124.40;55.72;;;3.50;99.90;;;;;;5029334;28;20037;-44
2020/12/09 05:39:54;;;;;;;120.07;55.78;;;3.50;99.90;;;;;;5029611;28;20079;-45
2020/12/09 05:42:22;;;;;;;121.45;55.40;;;3.50;99.90;;;;;;5028835;28;20032;-45
2020/12/09 05:44:48;;;;;;;120.38;52.75;;;3.50;99.90;;;;;;5027132;28;20391;-45
2020/12/09 05:47:15;;;;;;;119.32;55.72;;;3.40;99.90;;;;;;5028689;28;20025;-44
2020/12/09 05:49:41;;;;;;;126.32;56.60;;;3.50;99.90;;;;;;5029946;28;20510;-44
2020/12/09 05:52:17;;;;;;;130.13;57.60;;;3.50;99.90;;;;;;5028752;28;20022;-44
2020/12/09 05:54:45;;;;;;;122.22;54.75;;;3.50;99.90;;;;;;5028256;28;20394;-44
2020/12/09 05:57:16;;;;;;;121.30;55.67;;;3.50;99.90;;;;;;5029214;28;20029;-44
2020/12/09 05:59:43;;;;;;;120.65;56.83;;;3.50;99.90;;;;;;5027509;28;20032;-44
2020/12/09 06:02:14;;;;;;;123.78;58.55;;;3.50;99.90;;;;;;5029296;28;20129;-46
2020/12/09 06:05:00;;;;;;;129.27;57.78;;;3.50;99.90;;;;;;5028590;28;20033;-44
2020/12/09 06:07:30;;;;;;;116.35;54.15;;;3.50;99.90;;;;;;5029280;28;20034;-44
2020/12/09 06:10:19;;;;;;;124.10;53.80;;;3.50;99.90;;;;;;5029062;28;20024;-45
2020/12/09 06:13:02;;;;;;;116.40;52.20;;;3.50;99.90;;;;;;5030634;28;20030;-45
2020/12/09 06:15:29;;;;;;;115.97;51.83;;;3.50;99.90;;;;;;5042085;28;20017;-44
2020/12/09 06:18:13;;;;;;;112.30;55.15;;;3.50;99.90;;;;;;5028386;28;20021;-45
2020/12/09 06:20:40;;;;;;;108.88;52.22;;;3.50;99.90;;;;;;5031010;28;20033;-45
2020/12/09 06:23:11;;;;;;;115.63;52.53;;;3.50;99.90;;;;;;5032216;28;20053;-45
2020/12/09 06:25:37;;;;;;;;;;;3.50;99.90;;;;;;5043972;28;20025;-45
2020/12/09 06:28:08;;;;;;;106.65;50.67;;;3.50;99.90;;;;;;5045481;28;19905;-44
2020/12/09 06:30:34;;;;;;;107.13;50.58;;;3.50;99.90;;;;;;5042736;28;20021;-45
2020/12/09 06:32:59;;;;;;;100.10;50.00;;;3.50;99.90;;;;;;5032397;28;20040;-45
2020/12/09 06:35:25;;;;;;;110.30;52.05;;;3.50;99.90;;;;;;5045838;28;20097;-44
2020/12/09 06:38:13;;;;;;;104.07;49.50;;;3.50;99.90;;;;;;5052418;28;20107;-44
2020/12/09 06:40:40;;;;;;;104.70;50.30;;;3.50;99.90;;;;;;5039696;28;20155;-44
2020/12/09 06:43:09;;;;;;;108.75;51.10;;;3.50;99.90;;;;;;5052075;28;20021;-45
2020/12/09 06:45:45;;;;;;;104.68;49.95;;;3.50;99.90;;;;;;5048718;28;20037;-44
2020/12/09 06:48:15;;;;;;;106.70;49.53;;;3.50;99.90;;;;;;5042390;28;20022;-45
2020/12/09 06:50:44;;;;;;;92.78;45.80;;;3.50;99.90;;;;;;5036404;28;20029;-43
2020/12/09 06:53:20;;;;;;;101.03;48.03;;;3.50;99.90;;;;;;5037015;28;20029;-45
2020/12/09 06:55:47;;;;;;;94.45;48.28;;;3.50;99.90;;;;;;5034852;28;20025;-44
2020/12/09 06:58:27;;;;;;;108.38;50.88;;;3.40;99.90;;;;;;5028722;28;20032;-44
2020/12/09 07:01:07;;;;;;;96.35;46.60;;;3.40;99.90;;;;;;5035853;28;20078;-44
2020/12/09 07:03:37;;;;;;;99.18;47.25;;;3.40;99.90;;;;;;5030405;28;20072;-44
2020/12/09 07:06:15;;;;;;;;;;;3.50;99.90;;;;;;5031714;28;20020;-45
2020/12/09 07:08:48;;;;;;;96.32;46.63;;;3.40;99.90;;;;;;5032497;28;19979;-44
2020/12/09 07:11:14;;;;;;;90.55;43.95;;;3.40;99.90;;;;;;5042090;28;20028;-46
2020/12/09 07:13:40;;;;;;;94.50;47.42;;;3.40;99.90;;;;;;5031626;28;20095;-45
2020/12/09 07:16:06;;;;;;;98.38;47.28;;;3.40;99.90;;;;;;5031025;28;20033;-44
2020/12/09 07:18:36;;;;;;;93.22;47.13;;;3.40;99.90;;;;;;5032069;28;20067;-44
2020/12/09 07:21:05;;;;;;;89.43;45.50;;;3.40;99.90;;;;;;5032275;28;20048;-44
2020/12/09 07:23:30;;;;;;;89.40;44.30;;;3.50;99.90;;;;;;5033238;28;20037;-44
2020/12/09 07:25:57;;;;;;;94.97;46.67;;;3.50;99.90;;;;;;5031105;28;20535;-44
2020/12/09 07:28:23;;;;;;;95.57;45.88;;;3.50;99.90;;;;;;5031459;28;20033;-43
2020/12/09 07:30:49;;;;;;;97.05;47.65;;;3.50;99.90;;;;;;5041482;28;20013;-44
2020/12/09 07:33:17;;;;;;;91.93;44.78;;;3.50;99.90;;;;;;5031100;28;20026;-44
2020/12/09 07:35:44;;;;;;;95.82;45.70;;;3.50;99.90;;;;;;5030664;28;20033;-45
2020/12/09 07:38:09;;;;;;;108.38;49.42;;;3.50;99.90;;;;;;5031620;28;20036;-44
2020/12/09 07:40:35;;;;;;;96.95;46.55;;;3.50;99.90;;;;;;5035711;28;20510;-44
2020/12/09 07:43:05;;;;;;;95.72;48.05;;;3.50;99.90;;;;;;5031483;28;20052;-44
2020/12/09 07:45:33;;;;;;;89.90;43.15;;;3.50;99.90;;;;;;5035764;28;20029;-44
2020/12/09 07:48:00;;;;;;;92.88;45.13;;;3.50;99.90;;;;;;5032369;28;20020;-45
2020/12/09 07:50:26;;;;;;;93.88;45.83;;;3.50;99.90;;;;;;5038857;28;20029;-46
2020/12/09 07:52:51;;;;;;;91.68;44.63;;;3.50;99.90;;;;;;5031196;28;20013;-44
2020/12/09 07:55:18;;;;;;;101.05;48.83;;;3.50;99.90;;;;;;5030596;28;20096;-44
2020/12/09 07:57:43;;;;;;;99.00;45.88;;;3.60;99.90;;;;;;5030859;28;20033;-44
2020/12/09 08:00:12;;;;;;;88.18;44.28;;;3.60;99.90;;;;;;5035911;28;20087;-44
2020/12/09 08:02:38;;;;;;;90.43;44.63;;;3.60;99.90;;;;;;5036753;28;20067;-45
2020/12/09 08:05:23;;;;;;;96.15;46.72;;;3.60;99.90;;;;;;5029020;28;20032;-44
2020/12/09 08:08:00;;;;;;;95.85;46.80;;;3.50;99.90;;;;;;5030928;28;20029;-44
2020/12/09 08:10:34;;;;;;;81.32;42.38;;;3.50;99.90;;;;;;5032073;28;20041;-44
2020/12/09 08:13:04;;;;;;;84.55;41.88;;;3.50;99.90;;;;;;5029364;28;20463;-46
2020/12/09 08:15:29;;;;;;;86.30;41.90;;;3.50;99.90;;;;;;5029960;28;20399;-46
2020/12/09 08:17:55;;;;;;;93.18;44.67;;;3.50;99.90;;;;;;5035446;28;20108;-44
2020/12/09 08:20:21;;;;;;;85.82;41.90;;;3.60;99.90;;;;;;5041481;28;20025;-46
2020/12/09 08:22:55;;;;;;;85.28;43.25;;;3.60;99.90;;;;;;5031749;28;20037;-43
2020/12/09 08:25:22;;;;;;;85.35;43.40;;;3.60;99.90;;;;;;5030832;28;20053;-45
2020/12/09 08:27:48;;;;;;;82.93;40.63;;;3.60;99.90;;;;;;5031520;28;20017;-44
2020/12/09 08:30:16;;;;;;;81.18;42.55;;;3.60;99.90;;;;;;5041467;28;20132;-44
2020/12/09 08:33:03;;;;;;;78.45;42.35;;;3.70;99.90;;;;;;5029974;28;20083;-44
2020/12/09 08:36:00;;;;;;;85.25;41.92;;;3.70;99.90;;;;;;5033789;28;20017;-44
2020/12/09 08:38:33;;;;;;;84.47;42.22;;;3.70;99.90;;;;;;5034963;28;20092;-45
2020/12/09 08:41:08;;;;;;;83.68;42.38;;;3.70;99.90;;;;;;5032410;28;20021;-45
2020/12/09 08:43:36;;;;;;;85.10;41.28;;;3.70;99.90;;;;;;5029776;28;20033;-45
2020/12/09 08:46:06;;;;;;;89.78;44.00;;;3.70;99.90;;;;;;5029599;28;20136;-44
2020/12/09 08:48:33;;;;;;;88.82;43.03;;;3.70;99.90;;;;;;5030549;28;20370;-44
2020/12/09 08:50:59;;;;;;;83.97;42.45;;;3.70;99.90;;;;;;5030783;28;20332;-44
2020/12/09 08:53:25;;;;;;;83.50;41.67;;;3.70;99.90;;;;;;5030240;28;20028;-45
2020/12/09 08:55:50;;;;;;;83.63;42.28;;;3.70;99.90;;;;;;5029463;28;20430;-44
2020/12/09 08:58:17;;;;;;;83.00;41.33;;;3.70;99.90;;;;;;5030076;28;20083;-44
2020/12/09 09:00:43;;;;;;;80.65;40.83;;;3.80;99.90;;;;;;5028722;28;20057;-44
2020/12/09 09:03:15;;;;;;;88.10;43.92;;;3.70;99.90;;;;;;5029973;28;20024;-44
2020/12/09 09:05:41;;;;;;;89.18;43.42;;;3.70;99.90;;;;;;5029500;28;20105;-44
2020/12/09 09:08:09;;;;;;;86.35;43.05;;;3.70;99.90;;;;;;5031053;28;20025;-44
2020/12/09 09:10:35;;;;;;;85.50;42.97;;;3.70;99.90;;;;;;5030028;28;20105;-46
2020/12/09 09:13:01;;;;;;;88.80;43.63;;;3.70;99.90;;;;;;5029644;28;20071;-44
2020/12/09 09:15:26;;;;;;;88.35;42.33;;;3.70;99.90;;;;;;5028636;28;20037;-45
2020/12/09 09:17:52;;;;;;;87.40;43.40;;;3.70;99.90;;;;;;5030666;28;20443;-45
2020/12/09 09:20:17;;;;;;;97.15;47.00;;;3.70;99.90;;;;;;5040524;28;20028;-44
2020/12/09 09:22:43;;;;;;;90.43;42.08;;;3.80;99.90;;;;;;5029902;28;20071;-44
2020/12/09 09:25:09;;;;;;;88.35;43.80;;;3.70;99.90;;;;;;5028849;28;20495;-45
2020/12/09 09:27:34;;;;;;;93.47;45.05;;;3.80;99.90;;;;;;5029222;28;20394;-44
2020/12/09 09:30:00;;;;;;;86.68;41.70;;;3.80;99.90;;;;;;5032526;28;20029;-45
2020/12/09 09:32:25;;;;;;;90.80;44.90;;;3.80;99.90;;;;;;5029265;28;20029;-44
2020/12/09 09:34:52;;;;;;;93.85;45.45;;;3.90;99.90;;;;;;5028712;28;20029;-45
2020/12/09 09:37:17;;;;;;;98.93;47.58;;;3.90;99.90;;;;;;5029294;28;20033;-44
2020/12/09 09:39:43;;;;;;;90.90;42.35;;;3.90;99.90;;;;;;5029741;28;20026;-45
2020/12/09 09:42:10;;;;;;;92.60;42.35;;;3.90;99.90;;;;;;5029502;28;20667;-45
2020/12/09 09:44:35;;;;;;;93.40;44.05;;;4.00;99.90;;;;;;5028515;28;20021;-45
2020/12/09 09:47:01;;;;;;;94.88;45.00;;;4.00;99.90;;;;;;5029487;28;20382;-45
2020/12/09 09:49:26;;;;;;;95.47;47.60;;;4.00;99.90;;;;;;5031246;28;20430;-46
2020/12/09 09:51:53;;;;;;;98.85;44.85;;;4.00;99.90;;;;;;5028667;28;20029;-45
2020/12/09 09:54:22;;;;;;;104.35;46.50;;;4.00;99.90;;;;;;5028676;28;20049;-45
2020/12/09 09:56:49;;;;;;;92.28;43.97;;;4.00;99.90;;;;;;5033183;28;20029;-45
2020/12/09 09:59:15;;;;;;;101.47;46.03;;;4.00;99.90;;;;;;5034124;28;20029;-45
2020/12/09 10:01:41;;;;;;;95.65;44.88;;;4.00;99.90;;;;;;5032304;28;20029;-46
2020/12/09 10:04:08;;;;;;;102.15;46.40;;;4.00;99.90;;;;;;5033189;28;20021;-45
2020/12/09 10:06:37;;;;;;;101.78;45.90;;;4.10;99.90;;;;;;5033982;28;20688;-45
2020/12/09 10:09:05;;;;;;;103.35;43.90;;;4.10;99.90;;;;;;5035771;28;20036;-45
2020/12/09 10:11:30;;;;;;;111.45;46.10;;;4.00;99.90;;;;;;5033249;28;20018;-45
2020/12/09 10:13:57;;;;;;;105.07;47.83;;;4.00;99.90;;;;;;5032960;28;20070;-45
2020/12/09 10:16:26;;;;;;;110.32;45.50;;;4.00;99.90;;;;;;5032206;28;20024;-45
2020/12/09 10:18:52;;;;;;;110.85;49.60;;;4.00;99.90;;;;;;5040151;28;20034;-45
2020/12/09 10:21:25;;;;;;;99.45;45.78;;;4.00;99.90;;;;;;5035475;28;20036;-45
2020/12/09 10:23:51;;;;;;;112.00;49.17;;;4.00;99.90;;;;;;5032981;28;20030;-45
2020/12/09 10:26:17;;;;;;;117.57;49.22;;;4.10;99.90;;;;;;5032293;28;20382;-44
2020/12/09 10:28:44;;;;;;;108.22;47.95;;;4.10;99.90;;;;;;5034990;28;20030;-44
2020/12/09 10:31:09;;;;;;;114.93;46.92;;;4.10;99.90;;;;;;5036838;28;20030;-44
2020/12/09 10:33:35;;;;;;;109.57;45.20;;;4.20;99.90;;;;;;5032903;28;20490;-45
2020/12/09 10:36:01;;;;;;;109.88;47.70;;;4.20;99.90;;;;;;5051047;28;20024;-44
2020/12/09 10:38:26;;;;;;;103.32;43.30;;;4.20;99.90;;;;;;5053004;28;20411;-45
2020/12/09 10:40:52;;;;;;;113.45;47.38;;;4.20;99.90;;;;;;5052135;28;20100;-44
2020/12/09 10:43:17;;;;;;;104.68;46.60;;;4.30;99.90;;;;;;5041302;28;20029;-44
2020/12/09 10:49:32;;;;;;;114.97;47.80;;;4.30;99.90;;;;;;5034704;28;20027;-44
2020/12/09 10:51:58;;;;;;;101.72;44.40;;;4.30;99.90;;;;;;5040751;28;20028;-45
2020/12/09 10:54:24;;;;;;;101.13;44.15;;;4.30;99.90;;;;;;5031375;28;20030;-45
2020/12/09 10:56:49;;;;;;;110.78;46.28;;;4.40;99.90;;;;;;5039313;28;20056;-45
2020/12/09 10:59:15;;;;;;;104.25;45.15;;;4.30;99.90;;;;;;5031332;28;20033;-44
2020/12/09 11:01:42;;;;;;;108.13;47.53;;;4.40;99.90;;;;;;5032284;28;20030;-45
2020/12/09 11:04:08;;;;;;;114.93;49.03;;;4.30;99.90;;;;;;5032370;28;20589;-44
2020/12/09 11:06:36;;;;;;;116.60;48.67;;;4.20;99.90;;;;;;5028958;28;20124;-45
2020/12/09 11:09:05;;;;;;;115.30;49.65;;;4.20;99.90;;;;;;5032859;28;20553;-45
2020/12/09 11:11:31;;;;;;;113.47;48.25;;;4.30;99.90;;;;;;5032148;28;20033;-44
2020/12/09 11:13:56;;;;;;;109.15;47.25;;;4.30;99.90;;;;;;5031861;28;20021;-44
2020/12/09 11:16:22;;;;;;;113.95;49.35;;;4.30;99.90;;;;;;5031303;28;20026;-46
2020/12/09 11:18:49;;;;;;;106.28;45.33;;;4.30;99.90;;;;;;5032021;28;20359;-45
2020/12/09 11:21:18;;;;;;;119.47;45.40;;;4.20;99.90;;;;;;5036793;28;20026;-44
2020/12/09 11:23:48;;;;;;;101.80;42.45;;;4.20;99.90;;;;;;5031736;28;20022;-44
2020/12/09 11:26:15;;;;;;;115.80;47.40;;;4.20;99.90;;;;;;5032243;28;20021;-46
2020/12/09 11:28:41;;;;;;;97.75;40.97;;;4.30;99.90;;;;;;5033022;28;20030;-44
2020/12/09 11:31:07;;;;;;;103.68;43.42;;;4.20;99.90;;;;;;5031526;28;20022;-44
2020/12/09 11:33:32;;;;;;;106.07;45.65;;;4.20;99.90;;;;;;5030464;28;20585;-46
2020/12/09 11:35:59;;;;;;;107.38;44.47;;;4.20;99.90;;;;;;5047159;28;20080;-44
2020/12/09 11:38:25;;;;;;;113.18;46.35;;;4.20;99.90;;;;;;5030449;28;20029;-45
2020/12/09 11:40:50;;;;;;;107.53;47.50;;;4.20;99.90;;;;;;5033964;28;20025;-44
2020/12/09 11:43:17;;;;;;;114.20;45.47;;;4.20;99.90;;;;;;5030784;28;20032;-44
2020/12/09 11:45:43;;;;;;;111.55;45.50;;;4.20;99.90;;;;;;5029832;28;20029;-46
2020/12/09 11:48:08;;;;;;;111.95;44.30;;;4.30;99.90;;;;;;5033031;28;20079;-45
2020/12/09 11:50:34;;;;;;;116.78;47.65;;;4.30;99.90;;;;;;5031255;28;20057;-44
2020/12/09 11:53:00;;;;;;;114.18;45.88;;;4.30;99.90;;;;;;5030739;28;20056;-45
2020/12/09 11:55:25;;;;;;;125.72;47.45;;;4.30;99.90;;;;;;5030460;28;20033;-45
2020/12/09 11:57:51;;;;;;;127.68;48.35;;;4.30;99.90;;;;;;5030702;28;20029;-44
2020/12/09 12:00:16;;;;;;;126.15;50.17;;;4.30;99.90;;;;;;5031763;28;20029;-44
2020/12/09 12:02:42;;;;;;;109.07;45.08;;;4.30;99.90;;;;;;5030598;28;20071;-44
2020/12/09 12:05:09;;;;;;;117.45;46.75;;;4.30;99.90;;;;;;5028667;28;20037;-46
2020/12/09 12:07:36;;;;;;;104.05;44.17;;;4.30;99.90;;;;;;5031910;28;20515;-45
2020/12/09 12:10:05;;;;;;;124.38;45.80;;;4.30;99.90;;;;;;5038673;28;20109;-45
2020/12/09 12:12:31;;;;;;;113.07;46.00;;;4.30;99.90;;;;;;5030917;28;20018;-45
2020/12/09 12:14:58;;;;;;;111.88;45.42;;;4.30;99.90;;;;;;5028509;28;20071;-44
2020/12/09 12:17:23;;;;;;;113.80;46.30;;;4.30;99.90;;;;;;5028892;28;20032;-45
2020/12/09 12:19:49;;;;;;;129.27;50.13;;;4.40;99.90;;;;;;5031762;28;20029;-44
2020/12/09 12:22:14;;;;;;;126.38;48.60;;;4.40;99.90;;;;;;5030495;28;20497;-44
2020/12/09 12:24:40;;;;;;;131.38;51.22;;;4.40;99.90;;;;;;5030045;28;20060;-44
2020/12/09 12:27:05;;;;;;;127.97;50.83;;;4.40;99.90;;;;;;5030177;28;20013;-45
2020/12/09 12:29:31;;;;;;;116.72;48.08;;;4.40;99.90;;;;;;5042783;28;20108;-44
2020/12/09 12:31:59;;;;;;;110.10;45.60;;;4.40;99.90;;;;;;5034083;28;20079;-44
2020/12/09 12:34:25;;;;;;;113.65;45.45;;;4.30;99.90;;;;;;5045929;28;20025;-44
2020/12/09 12:36:55;;;;;;;101.65;43.13;;;4.30;99.90;;;;;;5048647;28;20052;-47